createdAt,value
2023-01-19T00:01:54.533Z,11.40
2023-01-19T00:04:21.482Z,10.50
2023-01-19T00:06:48.417Z,12.73
2023-01-19T00:09:15.324Z,11.67
2023-01-19T00:11:42.205Z,13.53
2023-01-19T00:14:09.063Z,10.07
2023-01-19T00:16:36.061Z,11.40
2023-01-19T00:19:04.715Z,11.43
2023-01-19T00:21:31.734Z,12.97
2023-01-19T00:23:58.679Z,13.43
2023-01-19T00:26:25.564Z,13.83
2023-01-19T00:28:53.026Z,11.73
2023-01-19T00:31:21.808Z,11.77
2023-01-19T00:33:50.130Z,10.90
2023-01-19T00:36:19.292Z,12.07
2023-01-19T00:38:46.202Z,12.90
2023-01-19T00:41:13.164Z,12.70
2023-01-19T00:43:40.035Z,12.47
2023-01-19T00:46:07.053Z,11.47
2023-01-19T00:48:33.979Z,11.37
2023-01-19T00:51:01.053Z,13.03
2023-01-19T00:53:32.454Z,13.43
2023-01-19T00:55:59.452Z,12.80
2023-01-19T00:58:26.411Z,11.90
2023-01-19T01:00:54.149Z,12.50
2023-01-19T01:03:21.139Z,13.67
2023-01-19T01:05:49.394Z,13.77
2023-01-19T01:08:16.331Z,13.77
2023-01-19T01:10:44.615Z,11.77
2023-01-19T01:13:25.419Z,14.30
2023-01-19T01:15:55.278Z,12.67
2023-01-19T01:18:22.518Z,12.40
2023-01-19T01:20:49.739Z,13.27
2023-01-19T01:23:22.975Z,12.80
2023-01-19T01:25:51.430Z,14.10
2023-01-19T01:28:18.531Z,10.80
2023-01-19T01:30:45.422Z,11.20
2023-01-19T01:33:12.271Z,14.60
2023-01-19T01:35:39.684Z,14.20
2023-01-19T01:38:06.655Z,12.20
2023-01-19T01:40:33.563Z,11.90
2023-01-19T01:43:03.068Z,10.90
2023-01-19T01:45:32.957Z,10.83
2023-01-19T01:48:05.749Z,11.93
2023-01-19T01:50:37.391Z,13.57
2023-01-19T01:53:08.497Z,13.37
2023-01-19T01:55:39.726Z,13.67
2023-01-19T01:58:09.334Z,14.13
2023-01-19T02:00:56.908Z,13.40
2023-01-19T02:03:25.466Z,13.00
2023-01-19T02:05:57.551Z,15.97
2023-01-19T02:08:49.553Z,12.53
2023-01-19T02:11:35.328Z,12.90
2023-01-19T02:14:05.942Z,12.80
2023-01-19T02:16:33.492Z,12.70
2023-01-19T02:19:01.187Z,11.17
2023-01-19T02:21:35.936Z,12.30
2023-01-19T02:24:04.793Z,12.40
2023-01-19T02:26:35.117Z,13.10
2023-01-19T02:29:04.314Z,12.50
2023-01-19T02:31:32.493Z,14.00
2023-01-19T02:34:01.811Z,12.50
2023-01-19T02:36:35.200Z,14.40
2023-01-19T02:39:04.613Z,12.20
2023-01-19T02:41:38.828Z,12.43
2023-01-19T02:44:08.327Z,12.83
2023-01-19T02:46:35.512Z,15.33
2023-01-19T02:49:02.708Z,11.53
2023-01-19T02:51:29.941Z,14.03
2023-01-19T02:54:09.707Z,12.30
2023-01-19T02:57:01.044Z,14.00
2023-01-19T02:59:42.549Z,12.17
2023-01-19T03:02:25.108Z,12.77
2023-01-19T03:05:06.353Z,11.97
2023-01-19T03:07:44.800Z,11.93
2023-01-19T03:10:22.467Z,13.07
2023-01-19T03:12:54.215Z,11.43
2023-01-19T03:15:25.492Z,12.93
2023-01-19T03:17:53.867Z,12.83
2023-01-19T03:20:25.460Z,12.17
2023-01-19T03:22:57.320Z,13.13
2023-01-19T03:25:27.999Z,11.77
2023-01-19T03:27:57.470Z,12.13
2023-01-19T03:30:28.077Z,11.37
2023-01-19T03:32:59.899Z,14.23
2023-01-19T03:35:31.036Z,12.43
2023-01-19T03:38:00.234Z,12.43
2023-01-19T03:40:32.027Z,13.80
2023-01-19T03:43:00.217Z,13.77
2023-01-19T03:45:27.659Z,13.53
2023-01-19T03:47:55.396Z,12.37
2023-01-19T03:50:27.172Z,15.70
2023-01-19T03:53:02.037Z,12.50
2023-01-19T03:55:30.535Z,13.03
2023-01-19T03:57:57.489Z,14.37
2023-01-19T04:00:24.395Z,12.97
2023-01-19T04:02:51.302Z,15.37
2023-01-19T04:05:19.203Z,14.40
2023-01-19T04:07:48.416Z,14.60
2023-01-19T04:10:16.171Z,13.90
2023-01-19T04:12:44.841Z,14.67
2023-01-19T04:15:12.286Z,11.97
2023-01-19T04:17:39.278Z,15.13
2023-01-19T04:20:07.370Z,14.60
2023-01-19T04:22:34.251Z,13.37
2023-01-19T04:25:01.154Z,15.27
2023-01-19T04:27:28.979Z,12.27
2023-01-19T04:29:57.275Z,12.77
2023-01-19T04:32:24.308Z,12.40
2023-01-19T04:34:51.644Z,11.47
2023-01-19T04:37:18.567Z,13.27
2023-01-19T04:39:45.700Z,11.83
2023-01-19T04:42:13.020Z,12.27
2023-01-19T04:44:39.906Z,12.93
2023-01-19T04:47:08.083Z,12.13
2023-01-19T04:49:37.672Z,12.97
2023-01-19T04:52:04.880Z,12.03
2023-01-19T04:54:31.973Z,12.37
2023-01-19T04:56:58.996Z,17.17
2023-01-19T04:59:25.915Z,12.47
2023-01-19T05:01:53.561Z,12.93
2023-01-19T05:04:22.393Z,11.67
2023-01-19T05:06:49.402Z,13.07
2023-01-19T05:09:16.832Z,12.80
2023-01-19T05:11:43.744Z,13.97
2023-01-19T05:14:10.940Z,12.20
2023-01-19T05:16:37.940Z,12.40
2023-01-19T05:19:04.873Z,16.07
2023-01-19T05:21:33.159Z,15.77
2023-01-19T05:24:00.128Z,13.07
2023-01-19T05:26:26.999Z,15.07
2023-01-19T05:28:53.977Z,16.60
2023-01-19T05:31:21.002Z,13.77
2023-01-19T05:33:49.047Z,15.57
2023-01-19T05:36:15.976Z,12.60
2023-01-19T05:38:44.201Z,13.97
2023-01-19T05:41:11.089Z,14.90
2023-01-19T05:43:37.945Z,13.50
2023-01-19T05:46:06.023Z,12.17
2023-01-19T05:48:32.924Z,11.47
2023-01-19T05:51:00.466Z,13.57
2023-01-19T05:53:27.919Z,11.47
2023-01-19T05:56:00.020Z,12.30
2023-01-19T05:58:26.916Z,12.63
2023-01-19T06:00:53.836Z,13.27
2023-01-19T06:03:21.086Z,13.97
2023-01-19T06:05:48.029Z,12.57
2023-01-19T06:08:14.884Z,14.37
2023-01-19T06:10:41.833Z,13.23
2023-01-19T06:13:11.184Z,13.23
2023-01-19T06:15:38.188Z,14.57
2023-01-19T06:18:05.361Z,13.73
2023-01-19T06:20:32.332Z,15.93
2023-01-19T06:22:59.651Z,15.60
2023-01-19T06:25:26.944Z,13.57
2023-01-19T06:27:53.880Z,16.03
2023-01-19T06:30:22.140Z,12.23
2023-01-19T06:32:49.080Z,15.07
2023-01-19T06:35:16.006Z,14.40
2023-01-19T06:37:42.843Z,19.27
2023-01-19T06:40:13.602Z,18.87
2023-01-19T06:42:41.307Z,15.00
2023-01-19T06:45:10.058Z,13.50
2023-01-19T06:47:38.391Z,15.77
2023-01-19T06:50:06.096Z,14.10
2023-01-19T06:52:32.992Z,16.00
2023-01-19T06:54:59.861Z,17.07
2023-01-19T06:57:26.799Z,16.63
2023-01-19T06:59:53.716Z,17.27
2023-01-19T07:02:27.985Z,14.43
2023-01-19T07:04:56.981Z,14.87
2023-01-19T07:07:24.016Z,10.90
2023-01-19T07:09:53.819Z,10.97
2023-01-19T07:12:21.256Z,12.53
2023-01-19T07:14:49.478Z,11.03
2023-01-19T07:17:16.523Z,11.30
2023-01-19T07:19:43.491Z,10.87
2023-01-19T07:22:11.756Z,10.53
2023-01-19T07:24:38.796Z,11.67
2023-01-19T07:27:06.108Z,11.00
2023-01-19T07:29:33.165Z,11.13
2023-01-19T07:32:00.082Z,9.90
2023-01-19T07:34:26.969Z,12.30
2023-01-19T07:36:55.540Z,10.83
2023-01-19T07:39:23.780Z,11.63
2023-01-19T07:41:50.669Z,9.63
2023-01-19T07:44:17.668Z,9.40
2023-01-19T07:46:44.746Z,8.93
2023-01-19T07:49:12.653Z,10.10
2023-01-19T07:51:39.640Z,9.30
2023-01-19T07:54:08.446Z,11.43
2023-01-19T07:56:36.719Z,10.83
2023-01-19T07:59:03.697Z,11.97
2023-01-19T08:01:31.552Z,10.23
2023-01-19T08:03:58.482Z,10.70
2023-01-19T08:06:31.654Z,13.80
2023-01-19T08:08:58.561Z,10.47
2023-01-19T08:11:25.476Z,10.97
2023-01-19T08:13:53.697Z,11.03
2023-01-19T08:16:20.635Z,12.67
2023-01-19T08:18:47.529Z,10.20
2023-01-19T08:21:14.451Z,8.80
2023-01-19T08:23:41.500Z,9.57
2023-01-19T08:26:19.118Z,9.57
2023-01-19T08:28:45.978Z,8.33
2023-01-19T08:31:20.362Z,9.40
2023-01-19T08:33:49.467Z,8.13
2023-01-19T08:36:16.571Z,8.53
2023-01-19T08:38:44.942Z,7.43
2023-01-19T08:41:12.339Z,8.50
2023-01-19T08:43:39.271Z,9.00
2023-01-19T08:46:06.786Z,7.20
2023-01-19T08:48:35.380Z,8.30
2023-01-19T08:51:02.329Z,8.50
2023-01-19T08:53:29.357Z,7.60
2023-01-19T08:55:57.553Z,8.73
2023-01-19T08:58:24.637Z,7.23
2023-01-19T09:00:52.624Z,7.93
2023-01-19T09:03:22.578Z,8.40
2023-01-19T09:05:50.975Z,8.30
2023-01-19T09:08:18.011Z,7.37
2023-01-19T09:10:46.625Z,8.03
2023-01-19T09:13:13.871Z,8.77
2023-01-19T09:15:42.154Z,6.57
2023-01-19T09:18:13.397Z,9.10
2023-01-19T09:20:42.408Z,8.73
2023-01-19T09:23:11.548Z,7.13
2023-01-19T09:25:38.830Z,7.13
2023-01-19T09:28:06.068Z,9.20
2023-01-19T09:30:33.194Z,6.80
2023-01-19T09:33:04.600Z,7.13
2023-01-19T09:35:31.543Z,8.07
2023-01-19T09:37:59.296Z,7.13
2023-01-19T09:40:28.833Z,6.53
2023-01-19T09:42:59.236Z,8.67
2023-01-19T09:45:34.317Z,9.43
2023-01-19T09:48:03.917Z,6.63
2023-01-19T09:50:34.036Z,9.23
2023-01-19T09:53:13.914Z,7.50
2023-01-19T09:55:43.229Z,8.70
2023-01-19T09:58:13.750Z,7.73
2023-01-19T10:00:42.897Z,7.10
2023-01-19T10:03:15.382Z,7.50
2023-01-19T10:05:46.922Z,7.23
2023-01-19T10:08:21.926Z,7.90
2023-01-19T10:10:53.949Z,7.70
2023-01-19T10:13:29.786Z,7.13
2023-01-19T10:16:09.494Z,7.07
2023-01-19T10:18:48.704Z,7.93
2023-01-19T10:21:19.899Z,7.80
2023-01-19T10:23:50.775Z,6.17
2023-01-19T10:26:23.731Z,5.47
2023-01-19T10:28:55.325Z,7.03
2023-01-19T10:31:24.371Z,6.83
2023-01-19T10:33:52.589Z,7.03
2023-01-19T10:36:21.822Z,6.83
2023-01-19T10:38:48.978Z,6.63
2023-01-19T10:41:26.106Z,7.43
2023-01-19T10:44:01.033Z,6.73
2023-01-19T10:46:34.844Z,7.30
2023-01-19T10:49:02.043Z,5.43
2023-01-19T10:51:29.270Z,8.07
2023-01-19T10:53:59.065Z,6.83
2023-01-19T10:56:30.865Z,8.13
2023-01-19T10:59:00.388Z,7.00
2023-01-19T11:01:28.384Z,8.70
2023-01-19T11:04:00.063Z,7.17
2023-01-19T11:06:29.167Z,6.23
2023-01-19T11:09:11.664Z,6.37
2023-01-19T11:11:46.039Z,6.83
2023-01-19T11:14:15.011Z,7.43
2023-01-19T11:16:48.221Z,8.00
2023-01-19T11:19:26.492Z,8.13
2023-01-19T11:22:07.055Z,8.40
2023-01-19T11:24:33.972Z,8.40
2023-01-19T11:27:03.712Z,6.83
2023-01-19T11:29:31.957Z,8.47
2023-01-19T11:32:10.904Z,7.70
2023-01-19T11:34:41.402Z,7.20
2023-01-19T11:37:28.035Z,8.67
2023-01-19T11:39:57.517Z,7.67
2023-01-19T11:42:28.213Z,8.97
2023-01-19T11:45:05.973Z,6.67
2023-01-19T11:47:40.724Z,7.90
2023-01-19T11:50:14.489Z,7.07
2023-01-19T11:52:45.442Z,6.10
2023-01-19T11:55:18.499Z,7.47
2023-01-19T11:57:49.306Z,5.47
2023-01-19T12:00:24.634Z,6.47
2023-01-19T12:02:55.319Z,6.73
2023-01-19T12:05:24.629Z,6.33
2023-01-19T12:07:52.322Z,5.70
2023-01-19T12:10:25.447Z,6.63
2023-01-19T12:12:54.067Z,5.87
2023-01-19T12:15:26.422Z,6.00
2023-01-19T12:17:58.370Z,6.37
2023-01-19T12:20:29.333Z,5.70
2023-01-19T12:23:07.259Z,6.57
2023-01-19T12:25:46.678Z,7.23
2023-01-19T12:28:16.702Z,8.87
2023-01-19T12:30:44.405Z,5.57
2023-01-19T12:33:22.248Z,6.27
2023-01-19T12:35:57.449Z,5.80
2023-01-19T12:38:44.155Z,6.27
2023-01-19T12:41:26.949Z,6.97
2023-01-19T12:44:33.980Z,6.33
2023-01-19T12:47:20.017Z,6.07
2023-01-19T12:49:50.331Z,8.13
2023-01-19T12:52:22.997Z,6.03
2023-01-19T12:54:58.569Z,5.23
2023-01-19T12:57:28.641Z,6.23
2023-01-19T13:00:02.170Z,4.83
2023-01-19T13:02:42.693Z,6.43
2023-01-19T13:05:24.949Z,7.47
2023-01-19T13:08:20.876Z,6.40
2023-01-19T13:11:20.983Z,6.00
2023-01-19T13:14:24.560Z,5.40
2023-01-19T13:17:24.708Z,5.70
2023-01-19T13:20:12.725Z,7.40
2023-01-19T13:23:18.716Z,5.23
2023-01-19T13:25:50.831Z,6.70
2023-01-19T13:28:19.854Z,6.10
2023-01-19T13:30:56.523Z,5.97
2023-01-19T13:33:27.037Z,6.13
2023-01-19T13:35:58.480Z,5.57
2023-01-19T13:38:26.969Z,6.87
2023-01-19T13:40:55.876Z,6.30
2023-01-19T13:43:28.921Z,5.77
2023-01-19T13:45:56.554Z,7.33
2023-01-19T13:48:25.665Z,6.67
2023-01-19T13:51:04.403Z,7.30
2023-01-19T13:53:32.378Z,7.87
2023-01-19T13:56:20.604Z,5.70
2023-01-19T13:59:05.106Z,5.50
2023-01-19T14:01:33.061Z,5.87
2023-01-19T14:04:01.743Z,7.37
2023-01-19T14:06:39.282Z,5.50
2023-01-19T14:09:17.415Z,8.23
2023-01-19T14:11:45.935Z,5.87
2023-01-19T14:14:26.658Z,5.87
2023-01-19T14:16:53.751Z,5.57
2023-01-19T14:19:22.131Z,7.03
2023-01-19T14:21:59.176Z,5.87
2023-01-19T14:24:29.710Z,6.33
2023-01-19T14:27:20.957Z,6.93
2023-01-19T14:29:50.661Z,9.37
2023-01-19T14:32:20.028Z,6.33
2023-01-19T14:34:50.304Z,7.23
2023-01-19T14:37:23.669Z,5.27
2023-01-19T14:39:52.472Z,6.53
2023-01-19T14:42:24.784Z,7.47
2023-01-19T14:44:53.671Z,10.13
2023-01-19T14:47:31.068Z,7.20
2023-01-19T14:50:04.891Z,8.20
2023-01-19T14:52:34.990Z,7.97
2023-01-19T14:55:04.003Z,7.60
2023-01-19T14:57:30.877Z,5.93
2023-01-19T14:59:57.704Z,6.30
2023-01-19T15:02:24.664Z,8.80
2023-01-19T15:04:55.266Z,7.00
2023-01-19T15:07:25.040Z,4.80
2023-01-19T15:09:52.283Z,5.77
2023-01-19T15:12:20.696Z,6.83
2023-01-19T15:14:47.699Z,8.33
2023-01-19T15:17:25.214Z,7.20
2023-01-19T15:19:55.709Z,4.63
2023-01-19T15:22:26.794Z,6.23
2023-01-19T15:24:57.539Z,5.37
2023-01-19T15:27:24.623Z,4.87
2023-01-19T15:29:51.611Z,5.87
2023-01-19T15:32:18.515Z,6.93
2023-01-19T15:34:45.392Z,5.60
2023-01-19T15:37:12.240Z,7.13
2023-01-19T15:39:40.484Z,5.93
2023-01-19T15:42:11.183Z,5.93
2023-01-19T15:44:38.274Z,5.20
2023-01-19T15:47:05.270Z,5.43
2023-01-19T15:49:32.261Z,5.93
2023-01-19T15:51:59.105Z,7.17
2023-01-19T15:54:26.025Z,7.27
2023-01-19T15:56:54.311Z,5.43
2023-01-19T15:59:21.278Z,6.90
2023-01-19T16:01:50.684Z,6.23
2023-01-19T16:04:18.169Z,6.80
2023-01-19T16:06:45.232Z,7.57
2023-01-19T16:09:16.741Z,7.63
2023-01-19T16:11:44.045Z,8.07
2023-01-19T16:14:12.572Z,7.80
2023-01-19T16:16:39.477Z,6.80
2023-01-19T16:19:06.372Z,6.23
2023-01-19T16:21:33.264Z,6.80
2023-01-19T16:24:00.150Z,9.07
2023-01-19T16:26:29.815Z,7.10
2023-01-19T16:28:58.545Z,10.87
2023-01-19T16:31:27.387Z,14.77
2023-01-19T16:33:54.354Z,11.73
2023-01-19T16:36:24.587Z,9.70
2023-01-19T16:38:51.772Z,9.77
2023-01-19T16:41:19.248Z,7.00
2023-01-19T16:43:50.744Z,6.93
2023-01-19T16:46:20.858Z,8.90
2023-01-19T16:48:49.606Z,8.43
2023-01-19T16:51:16.965Z,7.67
2023-01-19T16:53:43.909Z,8.67
2023-01-19T16:56:12.633Z,11.37
2023-01-19T16:58:39.762Z,7.47
2023-01-19T17:01:08.953Z,9.47
2023-01-19T17:03:36.006Z,8.37
2023-01-19T17:06:05.248Z,6.63
2023-01-19T17:08:32.162Z,8.07
2023-01-19T17:11:01.200Z,6.13
2023-01-19T17:13:28.256Z,8.70
2023-01-19T17:16:00.544Z,6.40
2023-01-19T17:18:27.863Z,8.20
2023-01-19T17:20:54.828Z,9.20
2023-01-19T17:23:23.149Z,9.03
2023-01-19T17:25:53.264Z,9.97
2023-01-19T17:28:20.257Z,8.97
2023-01-19T17:30:47.532Z,8.73
2023-01-19T17:33:14.451Z,9.80
2023-01-19T17:35:41.938Z,9.43
2023-01-19T17:38:08.901Z,7.63
2023-01-19T17:40:37.180Z,10.07
2023-01-19T17:43:04.191Z,12.90
2023-01-19T17:45:31.108Z,11.73
2023-01-19T17:47:57.998Z,8.90
2023-01-19T17:50:24.881Z,6.50
2023-01-19T17:52:51.769Z,8.23
2023-01-19T17:55:19.788Z,9.03
2023-01-19T17:57:48.066Z,9.07
2023-01-19T18:00:16.101Z,7.77
2023-01-19T18:02:43.349Z,7.80
2023-01-19T18:05:12.672Z,8.77
2023-01-19T18:07:39.882Z,7.60
2023-01-19T18:10:08.019Z,9.10
2023-01-19T18:12:35.152Z,8.80
2023-01-19T18:15:03.701Z,7.20
2023-01-19T18:17:30.906Z,9.07
2023-01-19T18:19:58.162Z,8.50
2023-01-19T18:22:25.050Z,8.70
2023-01-19T18:24:52.039Z,9.00
2023-01-19T18:27:20.155Z,9.60
2023-01-19T18:29:47.038Z,7.63
2023-01-19T18:32:15.694Z,9.77
2023-01-19T18:34:42.627Z,8.53
2023-01-19T18:37:09.586Z,8.63
2023-01-19T18:39:36.446Z,10.43
2023-01-19T18:42:03.605Z,11.57
2023-01-19T18:44:30.546Z,8.70
2023-01-19T18:46:57.999Z,8.80
2023-01-19T18:49:26.186Z,8.37
2023-01-19T18:51:53.009Z,10.70
2023-01-19T18:54:19.971Z,8.00
2023-01-19T18:56:49.279Z,8.20
2023-01-19T18:59:16.129Z,9.90
2023-01-19T19:01:43.055Z,8.80
2023-01-19T19:04:10.093Z,14.77
2023-01-19T19:06:38.375Z,14.80
2023-01-19T19:09:05.363Z,18.17
2023-01-19T19:11:32.468Z,18.50
2023-01-19T19:14:01.255Z,15.50
2023-01-19T19:16:28.669Z,13.73
2023-01-19T19:18:55.878Z,12.53
2023-01-19T19:21:25.237Z,16.63
2023-01-19T19:23:54.902Z,15.00
2023-01-19T19:26:22.975Z,12.50
2023-01-19T19:28:49.978Z,12.53
2023-01-19T19:31:20.546Z,12.37
2023-01-19T19:33:48.932Z,12.87
2023-01-19T19:36:15.967Z,11.37
2023-01-19T19:38:44.359Z,11.37
2023-01-19T19:41:15.621Z,12.13
2023-01-19T19:43:43.072Z,11.87
2023-01-19T19:46:11.956Z,11.97
2023-01-19T19:48:39.791Z,9.97
2023-01-19T19:51:17.720Z,12.00
2023-01-19T19:53:45.694Z,12.60
2023-01-19T19:56:14.202Z,11.17
2023-01-19T19:58:42.919Z,12.63
2023-01-19T20:01:11.067Z,13.03
2023-01-19T20:03:38.729Z,13.73
2023-01-19T20:06:07.085Z,13.10
2023-01-19T20:08:34.517Z,13.03
2023-01-19T20:11:06.462Z,16.30
2023-01-19T20:13:35.632Z,15.60
2023-01-19T20:16:03.968Z,16.00
2023-01-19T20:18:31.404Z,15.53
2023-01-19T20:20:58.804Z,14.87
2023-01-19T20:23:26.289Z,12.27
2023-01-19T20:25:53.216Z,13.30
2023-01-19T20:28:20.107Z,11.23
2023-01-19T20:30:48.433Z,10.03
2023-01-19T20:33:15.356Z,10.37
2023-01-19T20:35:42.262Z,10.30
2023-01-19T20:38:09.322Z,10.70
2023-01-19T20:40:36.202Z,10.93
2023-01-19T20:43:03.212Z,11.70
2023-01-19T20:45:30.133Z,10.27
2023-01-19T20:47:58.381Z,11.50
2023-01-19T20:50:25.281Z,11.27
2023-01-19T20:52:52.198Z,11.13
2023-01-19T20:55:19.143Z,10.53
2023-01-19T20:57:46.018Z,12.80
2023-01-19T21:00:13.654Z,12.43
2023-01-19T21:02:40.561Z,13.07
2023-01-19T21:05:09.857Z,16.80
2023-01-19T21:07:36.831Z,14.33
2023-01-19T21:10:04.663Z,11.30
2023-01-19T21:12:31.580Z,12.40
2023-01-19T21:14:58.573Z,11.33
2023-01-19T21:17:25.556Z,12.67
2023-01-19T21:19:52.499Z,9.83
2023-01-19T21:22:20.808Z,10.67
2023-01-19T21:24:47.781Z,10.67
2023-01-19T21:27:14.887Z,9.23
2023-01-19T21:29:41.830Z,10.70
2023-01-19T21:32:08.748Z,11.20
2023-01-19T21:34:35.842Z,12.63
2023-01-19T21:37:05.528Z,14.60
2023-01-19T21:39:33.713Z,13.47
2023-01-19T21:42:00.799Z,14.83
2023-01-19T21:44:27.727Z,17.07
2023-01-19T21:46:55.758Z,16.43
2023-01-19T21:49:22.746Z,16.67
2023-01-19T21:52:05.065Z,15.77
2023-01-19T21:54:33.315Z,14.13
2023-01-19T21:57:02.494Z,13.87
2023-01-19T21:59:29.357Z,15.40
2023-01-19T22:01:56.407Z,15.43
2023-01-19T22:04:23.446Z,13.47
2023-01-19T22:06:50.269Z,13.87
2023-01-19T22:09:17.186Z,14.17
2023-01-19T22:11:45.378Z,14.00
2023-01-19T22:14:12.299Z,13.20
2023-01-19T22:16:39.250Z,12.87
2023-01-19T22:19:08.204Z,12.13
2023-01-19T22:21:35.964Z,13.33
2023-01-19T22:24:05.070Z,14.90
2023-01-19T22:26:34.088Z,12.37
2023-01-19T22:29:04.199Z,13.50
2023-01-19T22:31:31.205Z,11.27
2023-01-19T22:33:58.478Z,14.40
2023-01-19T22:36:26.920Z,12.17
2023-01-19T22:38:56.820Z,12.97
2023-01-19T22:41:25.866Z,13.40
2023-01-19T22:43:55.116Z,12.70
2023-01-19T22:46:24.834Z,13.07
2023-01-19T22:48:52.951Z,10.77
2023-01-19T22:51:21.244Z,11.83
2023-01-19T22:53:48.162Z,12.50
2023-01-19T22:56:16.386Z,13.33
2023-01-19T22:58:45.048Z,12.77
2023-01-19T23:01:13.902Z,12.70
2023-01-19T23:03:42.480Z,13.23
2023-01-19T23:06:12.461Z,11.17
2023-01-19T23:08:40.082Z,11.77
2023-01-19T23:11:08.177Z,14.33
2023-01-19T23:13:35.748Z,14.33
2023-01-19T23:16:03.047Z,14.23
2023-01-19T23:18:30.391Z,13.00
2023-01-19T23:21:03.883Z,13.67
2023-01-19T23:23:30.812Z,17.77
2023-01-19T23:26:00.784Z,12.50
2023-01-19T23:28:27.664Z,9.73
2023-01-19T23:30:54.590Z,9.87
2023-01-19T23:33:21.649Z,9.67
2023-01-19T23:35:48.550Z,14.53
2023-01-19T23:38:16.899Z,12.13
2023-01-19T23:40:43.770Z,15.37
2023-01-19T23:43:10.672Z,14.10
2023-01-19T23:45:37.604Z,11.40
2023-01-19T23:48:04.892Z,12.80
2023-01-19T23:50:31.768Z,12.27
2023-01-19T23:52:58.724Z,15.37
2023-01-19T23:55:27.538Z,14.00
2023-01-19T23:57:54.432Z,12.40
